createdAt,value
2019-05-07T02:11:59.889Z,17.95
2019-05-07T02:14:33.036Z,18.67
2019-05-07T02:17:04.076Z,20.62
2019-05-07T02:19:34.906Z,18.85
2019-05-07T02:22:05.713Z,23.20
2019-05-07T02:24:36.879Z,22.67
2019-05-07T02:27:08.132Z,21.68
2019-05-07T02:29:39.161Z,21.23
2019-05-07T02:32:13.037Z,22.15
2019-05-07T02:34:44.257Z,22.17
2019-05-07T02:37:16.084Z,21.87
2019-05-07T02:39:48.510Z,21.52
2019-05-07T02:42:19.543Z,25.57
2019-05-07T02:44:53.012Z,21.82
2019-05-07T02:47:24.171Z,20.08
2019-05-07T02:49:56.328Z,20.10
2019-05-07T02:52:28.513Z,21.87
2019-05-07T02:55:03.879Z,22.32
2019-05-07T02:57:34.232Z,26.00
2019-05-07T03:00:06.958Z,24.02
2019-05-07T03:02:38.083Z,20.23
2019-05-07T03:05:09.206Z,22.13
2019-05-07T03:07:42.467Z,26.10
2019-05-07T03:10:13.814Z,23.70
2019-05-07T03:12:45.011Z,23.67
2019-05-07T03:15:16.161Z,22.45
2019-05-07T03:17:47.262Z,21.77
2019-05-07T03:20:22.782Z,27.52
2019-05-07T03:22:53.835Z,21.82
2019-05-07T03:25:25.520Z,21.40
2019-05-07T03:27:56.833Z,21.97
2019-05-07T03:30:28.999Z,25.37
2019-05-07T03:33:06.290Z,22.73
2019-05-07T03:35:37.059Z,23.92
2019-05-07T03:38:07.162Z,22.42
2019-05-07T03:40:38.839Z,21.80
2019-05-07T03:43:09.844Z,25.72
2019-05-07T03:45:43.290Z,20.08
2019-05-07T03:48:15.813Z,25.80
2019-05-07T03:50:46.930Z,22.97
2019-05-07T03:53:17.994Z,22.87
2019-05-07T03:55:48.824Z,25.10
2019-05-07T03:58:23.217Z,22.70
2019-05-07T04:00:53.600Z,25.90
2019-05-07T04:03:25.062Z,24.90
2019-05-07T04:05:55.884Z,29.30
2019-05-07T04:08:26.718Z,23.18
2019-05-07T04:10:58.202Z,21.45
2019-05-07T04:13:28.951Z,26.23
2019-05-07T04:15:59.808Z,23.77
2019-05-07T04:18:33.022Z,24.25
2019-05-07T04:21:04.014Z,23.45
2019-05-07T04:23:35.297Z,26.33
2019-05-07T04:26:07.751Z,22.65
2019-05-07T04:28:39.984Z,23.00
2019-05-07T04:31:14.022Z,21.53
2019-05-07T04:36:17.029Z,23.35
2019-05-07T04:38:47.950Z,22.25
2019-05-07T04:41:19.370Z,20.72
2019-05-07T04:43:53.820Z,22.40
2019-05-07T04:46:23.590Z,23.30
2019-05-07T04:48:55.409Z,23.47
2019-05-07T04:51:27.881Z,18.02
2019-05-07T04:53:59.356Z,19.45
2019-05-07T04:56:33.464Z,21.90
2019-05-07T04:59:03.658Z,22.05
2019-05-07T05:01:36.423Z,21.70
2019-05-07T05:04:24.247Z,19.90
2019-05-07T05:06:42.259Z,17.70
2019-05-07T05:09:12.670Z,24.40
2019-05-07T05:11:44.008Z,20.95
2019-05-07T05:14:15.409Z,19.02
2019-05-07T05:16:46.579Z,22.15
2019-05-07T05:19:18.362Z,18.25
2019-05-07T05:21:52.820Z,17.98
2019-05-07T05:24:24.767Z,21.25
2019-05-07T05:26:55.820Z,25.00
2019-05-07T05:29:27.193Z,20.25
2019-05-07T05:31:58.131Z,21.65
2019-05-07T05:34:28.894Z,21.97
2019-05-07T05:37:02.247Z,20.77
2019-05-07T05:39:32.616Z,22.85
2019-05-07T05:42:04.769Z,23.77
2019-05-07T05:44:36.070Z,18.23
2019-05-07T05:47:07.095Z,21.25
2019-05-07T05:49:38.146Z,16.67
2019-05-07T05:52:12.338Z,16.87
2019-05-07T05:54:44.093Z,22.05
2019-05-07T05:57:16.857Z,22.07
2019-05-07T06:02:22.815Z,17.73
2019-05-07T06:04:55.266Z,20.92
2019-05-07T06:07:27.780Z,21.90
2019-05-07T06:10:02.382Z,21.70
2019-05-07T06:12:34.001Z,23.87
2019-05-07T06:15:07.433Z,21.93
2019-05-07T06:17:42.344Z,21.48
2019-05-07T06:20:13.959Z,20.25
2019-05-07T06:22:46.592Z,19.32
2019-05-07T06:27:48.663Z,17.30
2019-05-07T06:30:22.736Z,17.82
2019-05-07T06:32:53.461Z,19.00
2019-05-07T06:35:24.416Z,22.13
2019-05-07T06:37:55.742Z,19.57
2019-05-07T06:40:29.499Z,22.58
2019-05-07T06:43:00.344Z,22.22
2019-05-07T06:45:35.587Z,27.60
2019-05-07T06:48:07.178Z,24.75
2019-05-07T06:50:38.121Z,21.27
2019-05-07T06:53:08.992Z,21.80
2019-05-07T06:55:42.674Z,17.82
2019-05-07T06:58:12.968Z,18.85
2019-05-07T07:00:43.850Z,18.02
2019-05-07T07:03:16.104Z,17.10
2019-05-07T07:05:46.653Z,22.10
2019-05-07T07:08:19.433Z,18.32
2019-05-07T07:10:52.263Z,18.60
2019-05-07T07:13:24.378Z,16.87
2019-05-07T07:15:55.963Z,21.73
2019-05-07T07:18:27.003Z,20.05
2019-05-07T07:20:57.890Z,16.95
2019-05-07T07:23:29.019Z,16.97
2019-05-07T07:26:00.102Z,16.73
2019-05-07T07:28:32.696Z,17.82
2019-05-07T07:31:04.898Z,19.57
2019-05-07T07:33:37.190Z,15.23
2019-05-07T07:36:08.121Z,21.33
2019-05-07T07:38:41.936Z,16.65
2019-05-07T07:41:14.229Z,15.40
2019-05-07T07:43:45.612Z,16.35
2019-05-07T07:46:16.794Z,23.30
2019-05-07T07:48:47.828Z,16.93
2019-05-07T07:51:18.866Z,14.85
2019-05-07T07:53:51.914Z,13.43
2019-05-07T07:56:23.333Z,29.05
2019-05-07T07:58:55.916Z,24.40
2019-05-07T08:01:28.048Z,15.32
2019-05-07T08:03:58.929Z,16.50
2019-05-07T08:06:32.651Z,17.85
2019-05-07T08:09:03.173Z,19.90
2019-05-07T08:11:34.532Z,17.12
2019-05-07T08:14:06.019Z,23.73
2019-05-07T08:16:37.080Z,21.75
2019-05-07T08:19:21.385Z,19.92
2019-05-07T08:21:42.040Z,22.50
2019-05-07T08:24:12.763Z,20.30
2019-05-07T08:26:43.744Z,15.75
2019-05-07T08:29:14.724Z,17.23
2019-05-07T08:31:46.681Z,18.27
2019-05-07T08:34:19.347Z,16.15
2019-05-07T08:36:53.532Z,16.37
2019-05-07T08:39:25.321Z,14.80
2019-05-07T08:41:56.381Z,16.55
2019-05-07T08:44:28.706Z,14.95
2019-05-07T08:47:02.721Z,16.80
2019-05-07T08:49:39.571Z,14.90
2019-05-07T08:52:06.201Z,19.62
2019-05-07T08:54:37.144Z,16.27
2019-05-07T08:57:08.018Z,21.23
2019-05-07T08:59:39.034Z,20.43
2019-05-07T09:02:12.572Z,18.62
2019-05-07T09:04:43.453Z,19.50
2019-05-07T09:07:14.520Z,31.65
2019-05-07T09:09:45.969Z,31.00
2019-05-07T09:12:17.072Z,22.07
2019-05-07T09:14:48.085Z,16.15
2019-05-07T09:17:27.604Z,20.08
2019-05-07T09:20:02.374Z,19.98
2019-05-07T09:22:33.487Z,16.97
2019-05-07T09:25:04.432Z,16.35
2019-05-07T09:27:36.816Z,15.08
2019-05-07T09:30:13.248Z,20.17
2019-05-07T09:32:52.370Z,14.53
2019-05-07T09:35:25.386Z,16.15
2019-05-07T09:37:56.625Z,15.17
2019-05-07T09:40:27.378Z,13.70
2019-05-07T09:42:58.855Z,14.43
2019-05-07T09:45:29.862Z,14.53
2019-05-07T09:48:02.849Z,14.25
2019-05-07T09:50:33.710Z,16.67
2019-05-07T09:53:04.749Z,15.13
2019-05-07T09:55:35.707Z,16.87
2019-05-07T09:58:06.858Z,16.87
2019-05-07T10:00:38.509Z,17.45
2019-05-07T10:03:09.670Z,17.10
2019-05-07T10:05:42.718Z,17.05
2019-05-07T10:08:13.720Z,18.05
2019-05-07T10:10:46.124Z,16.17
2019-05-07T10:13:18.829Z,17.67
2019-05-07T10:15:49.744Z,13.78
2019-05-07T10:18:22.692Z,14.95
2019-05-07T10:20:53.595Z,15.97
2019-05-07T10:23:24.450Z,20.43
2019-05-07T10:25:56.567Z,14.53
2019-05-07T10:28:27.726Z,15.28
2019-05-07T10:30:58.555Z,18.02
2019-05-07T10:33:29.432Z,23.57
2019-05-07T10:36:02.101Z,17.35
2019-05-07T10:38:33.277Z,16.45
2019-05-07T10:41:04.503Z,20.40
2019-05-07T10:43:35.683Z,23.73
2019-05-07T10:46:08.029Z,27.87
2019-05-07T10:48:40.462Z,24.70
2019-05-07T10:51:11.493Z,26.13
2019-05-07T10:53:42.564Z,25.88
2019-05-07T10:56:14.064Z,24.52
2019-05-07T10:58:45.616Z,20.35
2019-05-07T11:01:18.971Z,20.27
2019-05-07T11:06:21.958Z,33.30
2019-05-07T11:08:52.165Z,25.60
2019-05-07T11:11:23.317Z,22.62
2019-05-07T11:13:56.027Z,22.65
2019-05-07T11:16:27.573Z,21.52
2019-05-07T11:18:58.307Z,21.05
2019-05-07T11:21:32.959Z,24.00
2019-05-07T11:24:03.478Z,20.50
2019-05-07T11:26:34.949Z,21.17
2019-05-07T11:29:06.269Z,19.48
2019-05-07T11:31:37.292Z,25.30
2019-05-07T11:34:08.211Z,17.87
2019-05-07T11:36:40.117Z,16.60
2019-05-07T11:39:12.198Z,21.73
2019-05-07T11:41:44.457Z,21.40
2019-05-07T11:44:16.849Z,17.98
2019-05-07T11:46:49.551Z,25.10
2019-05-07T11:49:25.540Z,23.05
2019-05-07T11:51:57.783Z,21.05
2019-05-07T11:54:28.709Z,23.20
2019-05-07T11:56:59.487Z,20.50
2019-05-07T11:59:32.479Z,23.00
2019-05-07T12:02:04.232Z,23.90
2019-05-07T12:04:35.192Z,24.55
2019-05-07T12:07:06.138Z,38.95
2019-05-07T12:09:36.904Z,48.80
2019-05-07T12:12:08.138Z,38.58
2019-05-07T12:14:39.043Z,36.35
2019-05-07T12:17:11.837Z,27.58
2019-05-07T12:19:43.900Z,18.52
2019-05-07T12:22:16.207Z,21.77
2019-05-07T12:24:47.213Z,18.17
2019-05-07T12:27:17.895Z,24.70
2019-05-07T12:29:48.874Z,25.82
2019-05-07T12:32:22.081Z,24.65
2019-05-07T12:37:24.056Z,26.35
2019-05-07T12:39:54.962Z,22.58
2019-05-07T12:42:26.013Z,24.25
2019-05-07T12:44:56.933Z,24.90
2019-05-07T12:47:27.719Z,22.10
2019-05-07T12:49:58.560Z,25.92
2019-05-07T12:52:32.032Z,24.40
2019-05-07T12:55:04.344Z,21.75
2019-05-07T12:57:38.768Z,26.48
2019-05-07T13:00:12.812Z,20.02
2019-05-07T13:02:45.379Z,20.92
2019-05-07T13:05:16.348Z,21.70
2019-05-07T13:07:48.609Z,23.20
2019-05-07T13:10:21.804Z,21.23
2019-05-07T13:12:52.760Z,23.35
2019-05-07T13:15:27.817Z,22.32
2019-05-07T13:17:56.796Z,25.23
2019-05-07T13:20:28.033Z,19.57
2019-05-07T13:22:59.387Z,25.77
2019-05-07T13:25:32.253Z,22.05
2019-05-07T13:28:02.756Z,19.15
2019-05-07T13:30:33.810Z,19.42
2019-05-07T13:33:06.234Z,17.07
2019-05-07T13:35:38.069Z,20.67
2019-05-07T13:38:11.810Z,17.65
2019-05-07T13:40:43.367Z,18.67
2019-05-07T13:43:15.903Z,21.77
2019-05-07T13:45:49.122Z,26.53
2019-05-07T13:50:54.055Z,25.17
2019-05-07T13:53:25.153Z,31.02
2019-05-07T13:55:56.031Z,27.55
2019-05-07T13:58:27.196Z,27.40
2019-05-07T14:00:58.194Z,27.67
2019-05-07T14:03:29.160Z,31.82
2019-05-07T14:06:01.746Z,33.80
2019-05-07T14:08:34.203Z,31.35
2019-05-07T14:11:05.449Z,27.37
2019-05-07T14:13:36.277Z,27.95
2019-05-07T14:16:08.926Z,30.57
2019-05-07T14:18:41.040Z,29.07
2019-05-07T14:21:12.970Z,27.73
2019-05-07T14:23:43.906Z,25.08
2019-05-07T14:26:14.969Z,29.63
2019-05-07T14:28:45.797Z,27.30
2019-05-07T14:31:16.809Z,27.45
2019-05-07T14:33:47.476Z,27.98
2019-05-07T14:36:19.956Z,27.70
2019-05-07T14:38:52.123Z,26.37
2019-05-07T14:41:25.717Z,31.87
2019-05-07T14:43:56.983Z,31.20
2019-05-07T14:46:35.026Z,27.55
2019-05-07T14:49:00.131Z,28.60
2019-05-07T14:51:32.602Z,31.07
2019-05-07T14:54:03.988Z,30.80
2019-05-07T14:56:34.945Z,29.23
2019-05-07T14:59:06.430Z,33.40
2019-05-07T15:01:37.348Z,27.90
2019-05-07T15:04:08.318Z,28.40
2019-05-07T15:06:39.114Z,32.42
2019-05-07T15:09:11.932Z,31.90
2019-05-07T15:11:43.204Z,31.93
2019-05-07T15:14:14.315Z,29.77
2019-05-07T15:16:45.176Z,30.68
2019-05-07T15:19:16.343Z,31.85
2019-05-07T15:21:47.459Z,29.57
2019-05-07T15:24:18.388Z,32.63
2019-05-07T15:26:51.397Z,30.25
2019-05-07T15:29:22.436Z,31.52
2019-05-07T15:31:54.650Z,29.20
2019-05-07T15:34:26.026Z,29.50
2019-05-07T15:36:57.024Z,30.45
2019-05-07T15:39:27.950Z,32.38
2019-05-07T15:41:59.043Z,31.27
2019-05-07T15:44:29.960Z,32.58
2019-05-07T15:47:02.595Z,28.47
2019-05-07T15:49:34.027Z,31.93
2019-05-07T15:52:06.079Z,30.48
2019-05-07T15:54:37.107Z,29.52
2019-05-07T15:57:09.218Z,28.95
2019-05-07T15:59:41.788Z,28.90
2019-05-07T16:02:14.060Z,30.37
2019-05-07T16:04:45.053Z,28.98
2019-05-07T16:07:15.773Z,31.75
2019-05-07T16:09:46.577Z,27.77
2019-05-07T16:12:18.899Z,28.25
2019-05-07T16:14:49.590Z,27.52
2019-05-07T16:17:24.343Z,29.82
2019-05-07T16:19:55.175Z,28.50
2019-05-07T16:22:27.674Z,28.27
2019-05-07T16:24:58.745Z,34.43
2019-05-07T16:27:31.621Z,34.67
2019-05-07T16:30:02.197Z,31.57
2019-05-07T16:32:33.133Z,28.85
2019-05-07T16:35:05.671Z,30.48
2019-05-07T16:37:36.345Z,29.02
2019-05-07T16:40:09.791Z,29.23
2019-05-07T16:45:13.024Z,31.68
2019-05-07T16:47:43.567Z,31.55
2019-05-07T16:50:14.833Z,33.25
2019-05-07T16:52:45.755Z,32.70
2019-05-07T16:55:17.623Z,34.65
2019-05-07T16:57:51.536Z,31.33
2019-05-07T17:00:24.502Z,31.23
2019-05-07T17:02:57.053Z,36.25
2019-05-07T17:05:27.888Z,30.95
2019-05-07T17:07:59.027Z,34.08
2019-05-07T17:10:31.844Z,34.05
2019-05-07T17:13:02.876Z,36.42
2019-05-07T17:15:35.281Z,31.27
2019-05-07T17:18:05.912Z,34.48
2019-05-07T17:20:36.731Z,32.17
2019-05-07T17:23:07.871Z,39.10
2019-05-07T17:25:38.639Z,34.03
2019-05-07T17:28:12.457Z,35.00
2019-05-07T17:30:42.709Z,35.63
2019-05-07T17:33:13.415Z,35.58
2019-05-07T17:35:46.206Z,36.80
2019-05-07T17:38:16.954Z,35.13
2019-05-07T17:40:47.936Z,36.75
2019-05-07T17:43:18.825Z,33.55
2019-05-07T17:45:52.067Z,37.42
2019-05-07T17:48:23.298Z,36.57
2019-05-07T17:50:54.015Z,36.65
2019-05-07T17:53:25.131Z,41.15
2019-05-07T17:55:56.093Z,37.48
2019-05-07T17:58:27.005Z,37.25
2019-05-07T18:01:01.689Z,35.95
2019-05-07T18:03:32.933Z,39.55
2019-05-07T18:06:04.926Z,40.38
2019-05-07T18:08:36.064Z,39.00
2019-05-07T18:11:20.264Z,35.80
2019-05-07T18:13:39.638Z,41.03
2019-05-07T18:16:12.137Z,37.60
2019-05-07T18:18:43.274Z,44.37
2019-05-07T18:21:14.357Z,36.65
2019-05-07T18:23:45.138Z,38.42
2019-05-07T18:26:27.339Z,43.85
2019-05-07T18:28:48.658Z,38.87
2019-05-07T18:31:22.180Z,37.20
2019-05-07T18:33:54.527Z,38.67
2019-05-07T18:36:25.729Z,38.88
2019-05-07T18:38:56.598Z,38.92
2019-05-07T18:41:27.392Z,36.55
2019-05-07T18:44:08.917Z,36.42
2019-05-07T18:46:32.603Z,38.30
2019-05-07T18:49:03.446Z,41.60
2019-05-07T18:51:34.586Z,36.95
2019-05-07T18:54:05.473Z,37.08
2019-05-07T18:56:36.571Z,38.10
2019-05-07T18:59:07.700Z,38.83
2019-05-07T19:01:41.990Z,36.98
2019-05-07T19:04:12.965Z,37.00
2019-05-07T19:06:43.961Z,37.40
2019-05-07T19:09:15.111Z,34.45
2019-05-07T19:11:46.324Z,38.58
2019-05-07T19:14:17.151Z,37.40
2019-05-07T19:16:48.092Z,37.30
2019-05-07T19:19:19.213Z,37.80
2019-05-07T19:21:52.828Z,37.67
2019-05-07T19:24:26.378Z,36.70
2019-05-07T19:26:57.453Z,37.42
2019-05-07T19:29:28.434Z,37.63
2019-05-07T19:31:59.368Z,41.60
2019-05-07T19:34:32.484Z,37.50
2019-05-07T19:37:02.869Z,35.73
2019-05-07T19:39:33.699Z,44.67
2019-05-07T19:42:04.858Z,38.63
2019-05-07T19:44:35.924Z,37.42
2019-05-07T19:47:07.065Z,42.67
2019-05-07T19:49:38.122Z,39.50
2019-05-07T19:52:09.177Z,42.38
2019-05-07T19:54:39.981Z,41.80
2019-05-07T19:57:12.442Z,38.58
2019-05-07T19:59:43.448Z,36.42
2019-05-07T20:02:15.602Z,35.78
2019-05-07T20:04:46.606Z,37.55
2019-05-07T20:07:17.511Z,36.10
2019-05-07T20:09:48.470Z,38.55
2019-05-07T20:12:19.276Z,39.03
2019-05-07T20:14:51.730Z,39.88
2019-05-07T20:17:22.345Z,39.42
2019-05-07T20:19:53.482Z,37.25
2019-05-07T20:22:24.402Z,37.70
2019-05-07T20:24:55.561Z,36.83
2019-05-07T20:27:26.441Z,37.48
2019-05-07T20:29:57.658Z,36.63
2019-05-07T20:32:28.828Z,35.70
2019-05-07T20:34:59.794Z,35.15
2019-05-07T20:37:32.431Z,34.23
2019-05-07T20:40:03.121Z,38.73
2019-05-07T20:42:34.107Z,36.77
2019-05-07T20:45:05.898Z,38.78
2019-05-07T20:47:37.002Z,37.20
2019-05-07T20:50:09.085Z,33.92
2019-05-07T20:52:41.762Z,37.38
2019-05-07T20:55:26.570Z,34.48
2019-05-07T20:57:50.667Z,36.38
2019-05-07T21:00:22.864Z,36.73
2019-05-07T21:02:55.234Z,33.88
2019-05-07T21:05:26.166Z,33.05
2019-05-07T21:07:57.098Z,34.33
2019-05-07T21:10:27.997Z,33.98
2019-05-07T21:12:58.970Z,32.65
2019-05-07T21:15:32.116Z,32.93
2019-05-07T21:18:02.440Z,31.40
2019-05-07T21:20:33.509Z,33.50
2019-05-07T21:23:04.402Z,34.90
2019-05-07T21:25:42.638Z,31.93
2019-05-07T21:28:07.895Z,31.90
2019-05-07T21:30:38.770Z,32.73
2019-05-07T21:33:11.799Z,30.32
2019-05-07T21:35:42.916Z,31.48
2019-05-07T21:38:14.169Z,32.30
2019-05-07T21:40:45.111Z,32.40
2019-05-07T21:43:15.975Z,30.82
2019-05-07T21:45:47.022Z,33.33
2019-05-07T21:48:17.909Z,33.48
2019-05-07T21:50:48.815Z,33.70
2019-05-07T21:53:22.726Z,31.33
2019-05-07T21:58:27.042Z,32.88
2019-05-07T22:01:01.909Z,32.93
2019-05-07T22:03:34.975Z,30.48
2019-05-07T22:06:05.056Z,31.70
2019-05-07T22:08:35.795Z,69.35
2019-05-07T22:11:07.066Z,32.38
2019-05-07T22:13:37.988Z,32.17
2019-05-07T22:16:08.857Z,32.45
2019-05-07T22:18:39.805Z,31.77
2019-05-07T22:21:12.431Z,34.38
2019-05-07T22:23:43.044Z,30.77
2019-05-07T22:26:22.839Z,37.28
2019-05-07T22:28:46.326Z,31.00
2019-05-07T22:31:18.765Z,30.08
2019-05-07T22:33:52.711Z,30.23
2019-05-07T22:38:53.501Z,29.02
2019-05-07T22:41:24.716Z,31.80
2019-05-07T22:43:55.682Z,30.35
2019-05-07T22:46:26.632Z,35.58
2019-05-07T22:48:57.573Z,31.57
2019-05-07T22:51:28.688Z,31.35
2019-05-07T22:53:59.612Z,32.20
2019-05-07T22:56:37.222Z,33.53
2019-05-07T23:01:34.288Z,31.00
2019-05-07T23:04:04.991Z,30.30
2019-05-07T23:06:36.147Z,32.08
2019-05-07T23:09:07.858Z,31.48
2019-05-07T23:11:38.823Z,30.23
2019-05-07T23:14:11.736Z,29.12
2019-05-07T23:16:43.078Z,29.00
2019-05-07T23:19:14.379Z,33.23
2019-05-07T23:21:45.403Z,29.57
2019-05-07T23:24:16.340Z,30.20
2019-05-07T23:26:50.503Z,25.32
2019-05-07T23:29:19.679Z,27.17
2019-05-07T23:31:52.920Z,24.75
2019-05-07T23:34:23.222Z,26.33
2019-05-07T23:36:54.148Z,27.22
2019-05-07T23:39:26.270Z,25.05
2019-05-07T23:41:58.772Z,27.15
2019-05-07T23:44:29.904Z,27.27
2019-05-07T23:47:02.779Z,22.13
2019-05-07T23:49:33.937Z,25.50
2019-05-07T23:52:04.636Z,23.87
2019-05-07T23:54:35.638Z,25.52
2019-05-07T23:57:09.659Z,24.95
2019-05-07T23:59:38.787Z,24.50
